Time;durP1;ratioP1;P1;durP2;ratioP2;P2;SDS_P1;SDS_P2;PMS_P1;PMS_P2;Temp;Humidity;BMP_temperature;BMP_pressure;BME280_temperature;BME280_humidity;BME280_pressure;Samples;Min_cycle;Max_cycle;Signal;HPM_P1;HPM_P2
2021/04/08 00:00:09;;;;;;;;;;;;;;;3.55;100.00;99503.25;5055997;28;20054;-78
2021/04/08 00:02:38;;;;;;;;;;;;;;;3.57;100.00;99503.72;5056158;28;19927;-78
2021/04/08 00:05:05;;;;;;;;;;;;;;;3.47;100.00;99501.53;5055940;28;19927;-78
2021/04/08 00:07:32;;;;;;;;;;;;;;;3.46;100.00;99513.75;5038404;28;19966;-78
2021/04/08 00:09:58;;;;;;;;;;;;;;;3.52;100.00;99506.75;5056113;28;19924;-78
2021/04/08 00:12:25;;;;;;;;;;;;;;;3.47;100.00;99501.53;5055880;28;19927;-78
2021/04/08 00:14:52;;;;;;;;;;;;;;;3.49;100.00;99504.72;5056029;28;19927;-78
2021/04/08 00:17:18;;;;;;;;;;;;;;;3.45;100.00;99501.88;5051963;28;19921;-78
2021/04/08 00:19:45;;;;;;;;;;;;;;;3.44;100.00;99502.25;5046682;28;20268;-78
2021/04/08 00:22:11;;;;;;;;;;;;;;;3.38;100.00;99498.19;5055336;28;19952;-78
2021/04/08 00:24:38;;;;;;;;;;;;;;;3.40;100.00;99491.16;5055885;28;20425;-78
2021/04/08 00:27:05;;;;;;;;;;;;;;;3.51;100.00;99488.59;5055144;28;19966;-78
2021/04/08 00:29:31;;;;;;;;;;;;;;;3.54;100.00;99483.13;5055535;28;19941;-78
2021/04/08 00:31:58;;;;;;;;;;;;;;;3.57;100.00;99481.59;5055486;28;20387;-78
2021/04/08 00:34:25;;;;;;;;;;;;;;;3.58;100.00;99475.72;5055509;28;19921;-78
2021/04/08 00:36:51;;;;;;;;;;;;;;;3.51;100.00;99474.78;5055420;28;19920;-78
2021/04/08 00:39:18;;;;;;;;;;;;;;;3.52;100.00;99479.13;5055427;28;19928;-78
2021/04/08 00:41:45;;;;;;;;;;;;;;;3.41;100.00;99469.84;5054172;28;19920;-78
2021/04/08 00:44:12;;;;;;;;;;;;;;;3.32;100.00;99472.03;5054278;28;19928;-78
2021/04/08 00:46:39;;;;;;;;;;;;;;;3.28;100.00;99473.94;5053998;28;19928;-78
2021/04/08 00:49:05;;;;;;;;;;;;;;;3.23;100.00;99475.03;5055128;28;19924;-78
2021/04/08 00:51:32;;;;;;;;;;;;;;;3.29;100.00;99467.25;5054931;28;19921;-78
2021/04/08 00:53:59;;;;;;;;;;;;;;;3.24;100.00;99465.56;5055309;28;19964;-78
2021/04/08 00:56:26;;;;;;;;;;;;;;;3.19;100.00;99473.38;5055069;28;19921;-78
2021/04/08 00:58:52;;;;;;;;;;;;;;;3.10;100.00;99470.03;5055087;28;19921;-78
2021/04/08 01:01:19;;;;;;;;;;;;;;;3.13;100.00;99469.31;5055071;28;19924;-78
2021/04/08 01:03:46;;;;;;;;;;;;;;;3.12;100.00;99468.50;5037090;28;19928;-78
2021/04/08 01:06:13;;;;;;;;;;;;;;;3.17;100.00;99472.94;5054935;28;19920;-77
2021/04/08 01:08:39;;;;;;;;;;;;;;;3.18;100.00;99460.75;5054833;28;19924;-78
2021/04/08 01:11:06;;;;;;;;;;;;;;;3.26;100.00;99456.94;5054876;28;19920;-78
2021/04/08 01:13:35;;;;;;;;;;;;;;;3.22;100.00;99456.06;5053450;28;19921;-78
2021/04/08 01:16:04;;;;;;;;;;;;;;;3.28;100.00;99454.59;5054727;28;19974;-78
2021/04/08 01:18:40;;;;;;;;;;;;;;;3.21;100.00;99454.47;5054831;28;19924;-78
2021/04/08 01:21:12;;;;;;;;;;;;;;;3.21;100.00;99448.97;5054589;28;19920;-78
2021/04/08 01:23:57;;;;;;;;;;;;;;;3.22;100.00;99453.31;5054615;28;19928;-78
2021/04/08 01:26:43;;;;;;;;;;;;;;;3.21;100.00;99446.19;5053297;28;19920;-78
2021/04/08 01:29:14;;;;;;;;;;;;;;;3.28;100.00;99440.81;5053222;28;20311;-78
2021/04/08 01:31:43;;;;;;;;;;;;;;;3.35;100.00;99438.16;5053271;28;19925;-78
2021/04/08 01:34:13;;;;;;;;;;;;;;;3.39;100.00;99431.53;5054137;28;19988;-78
2021/04/08 01:36:41;;;;;;;;;;;;;;;3.40;100.00;99429.59;5054465;28;19928;-78
2021/04/08 01:39:12;;;;;;;;;;;;;;;3.44;100.00;99428.47;5053053;28;19921;-78
2021/04/08 01:41:42;;;;;;;;;;;;;;;3.46;100.00;99422.59;5054326;28;19955;-78
2021/04/08 01:44:13;;;;;;;;;;;;;;;3.44;100.00;99420.19;5054216;28;19921;-78
2021/04/08 01:46:41;;;;;;;;;;;;;;;3.35;100.00;99416.06;5052999;28;19925;-78
2021/04/08 01:49:09;;;;;;;;;;;;;;;3.36;100.00;99417.69;5053801;28;19921;-78
2021/04/08 01:51:36;;;;;;;;;;;;;;;3.34;100.00;99411.72;5052674;28;19925;-78
2021/04/08 01:54:05;;;;;;;;;;;;;;;3.29;100.00;99417.53;5054229;28;19921;-77
2021/04/08 01:56:33;;;;;;;;;;;;;;;3.27;100.00;99414.34;5052751;28;20482;-78
2021/04/08 01:59:00;;;;;;;;;;;;;;;3.25;100.00;99405.63;5052719;28;19974;-78
2021/04/08 02:01:27;;;;;;;;;;;;;;;3.26;100.00;99412.75;5054026;28;19928;-78
2021/04/08 02:03:55;;;;;;;;;;;;;;;3.24;100.00;99410.34;5053451;28;19920;-78
2021/04/08 02:06:23;;;;;;;;;;;;;;;3.25;100.00;99411.16;5053953;28;19960;-78
2021/04/08 02:08:51;;;;;;;;;;;;;;;3.27;100.00;99417.13;5053747;28;19920;-78
2021/04/08 02:11:18;;;;;;;;;;;;;;;3.28;100.00;99407.66;5053760;28;19986;-78
2021/04/08 02:13:46;;;;;;;;;;;;;;;3.36;100.00;99406.63;5053625;28;20023;-78
2021/04/08 02:16:14;;;;;;;;;;;;;;;3.40;100.00;99413.00;5053704;28;19966;-78
2021/04/08 02:18:41;;;;;;;;;;;;;;;3.46;100.00;99406.81;5053258;28;19959;-78
2021/04/08 02:21:08;;;;;;;;;;;;;;;3.32;100.00;99397.47;5053251;28;19978;-78
2021/04/08 02:23:36;;;;;;;;;;;;;;;3.52;100.00;99399.00;5052049;28;19924;-78
2021/04/08 02:26:29;;;;;;;;;;;;;;;3.56;100.00;99394.34;5053161;28;19929;-78
2021/04/08 02:28:57;;;;;;;;;;;;;;;3.62;100.00;99398.38;5051423;28;20287;-78
2021/04/08 02:31:24;;;;;;;;;;;;;;;3.70;100.00;99394.56;5052811;28;19936;-78
2021/04/08 02:33:50;;;;;;;;;;;;;;;3.70;100.00;99386.28;5053173;28;20355;-78
2021/04/08 02:36:17;;;;;;;;;;;;;;;3.82;100.00;99386.09;5053408;28;19921;-78
2021/04/08 02:38:44;;;;;;;;;;;;;;;3.60;100.00;99384.16;5053403;28;19975;-78
2021/04/08 02:41:11;;;;;;;;;;;;;;;3.68;100.00;99377.59;5052659;28;19932;-78
2021/04/08 02:43:37;;;;;;;;;;;;;;;3.55;100.00;99367.88;5053171;28;19927;-78
2021/04/08 02:46:04;;;;;;;;;;;;;;;3.67;100.00;99373.22;5053329;28;19970;-78
2021/04/08 02:48:32;;;;;;;;;;;;;;;3.47;100.00;99358.69;5052818;28;19925;-78
2021/04/08 02:51:02;;;;;;;;;;;;;;;3.45;100.00;99357.47;5051549;28;20452;-78
2021/04/08 02:53:40;;;;;;;;;;;;;;;3.89;100.00;99353.03;5035345;28;19924;-78
2021/04/08 02:56:26;;;;;;;;;;;;;;;3.92;100.00;99345.97;5051908;28;19925;-77
2021/04/08 02:58:55;;;;;;;;;;;;;;;3.96;100.00;99339.31;5035514;28;19960;-78
2021/04/08 03:01:24;;;;;;;;;;;;;;;3.94;100.00;99344.41;5052990;28;19925;-78
2021/04/08 03:03:53;;;;;;;;;;;;;;;3.89;100.00;99330.91;5053098;28;19924;-78
2021/04/08 03:06:20;;;;;;;;;;;;;;;3.83;100.00;99337.13;5053077;28;20345;-77
2021/04/08 03:08:54;;;;;;;;;;;;;;;3.77;100.00;99328.38;5052971;28;20300;-78
2021/04/08 03:11:23;;;;;;;;;;;;;;;3.84;100.00;99317.41;5053099;28;20356;-78
2021/04/08 03:13:51;;;;;;;;;;;;;;;3.88;100.00;99321.00;5035415;28;19956;-78
2021/04/08 03:16:20;;;;;;;;;;;;;;;3.88;100.00;99309.97;5052863;28;19932;-78
2021/04/08 03:18:51;;;;;;;;;;;;;;;3.77;100.00;99311.78;5035173;28;19929;-78
2021/04/08 03:21:18;;;;;;;;;;;;;;;3.91;100.00;99311.97;5051930;28;20273;-78
2021/04/08 03:23:45;;;;;;;;;;;;;;;3.91;100.00;99306.44;5052920;28;20207;-78
2021/04/08 03:26:13;;;;;;;;;;;;;;;3.82;100.00;99314.22;5051708;28;20376;-78
2021/04/08 03:28:40;;;;;;;;;;;;;;;3.89;100.00;99317.09;5052868;28;19924;-77
2021/04/08 03:31:07;;;;;;;;;;;;;;;3.75;100.00;99314.13;5051346;28;19929;-78
2021/04/08 03:33:35;;;;;;;;;;;;;;;3.60;100.00;99315.84;5052003;28;20363;-78
2021/04/08 03:36:02;;;;;;;;;;;;;;;3.66;100.00;99319.13;5052785;28;20059;-78
2021/04/08 03:38:29;;;;;;;;;;;;;;;3.91;100.00;99323.03;5053067;28;19978;-78
2021/04/08 03:40:59;;;;;;;;;;;;;;;3.82;100.00;99325.28;5052811;28;19924;-78
2021/04/08 03:43:26;;;;;;;;;;;;;;;3.98;100.00;99322.34;5052763;28;20380;-78
2021/04/08 03:45:57;;;;;;;;;;;;;;;3.95;100.00;99321.13;5052484;28;19925;-78
2021/04/08 03:48:25;;;;;;;;;;;;;;;3.87;100.00;99322.19;5049955;28;20377;-78
2021/04/08 03:50:52;;;;;;;;;;;;;;;3.92;100.00;99321.06;5051018;28;20288;-78
2021/04/08 03:53:20;;;;;;;;;;;;;;;3.88;100.00;99312.72;5054258;28;20391;-78
2021/04/08 03:55:47;;;;;;;;;;;;;;;4.13;100.00;99296.47;5056364;28;19931;-77
2021/04/08 03:58:16;;;;;;;;;;;;;;;4.06;100.00;99311.00;5056368;28;20429;-77
2021/04/08 04:00:43;;;;;;;;;;;;;;;4.11;100.00;99299.63;5054946;28;20292;-78
2021/04/08 04:03:11;;;;;;;;;;;;;;;4.19;100.00;99298.56;5056499;28;19925;-77
2021/04/08 04:05:39;;;;;;;;;;;;;;;4.12;100.00;99298.44;5056412;28;20015;-77
2021/04/08 04:08:06;;;;;;;;;;;;;;;4.14;100.00;99296.09;5054917;28;19925;-77
2021/04/08 04:10:34;;;;;;;;;;;;;;;4.07;100.00;99298.78;5056246;28;19924;-78
2021/04/08 04:13:02;;;;;;;;;;;;;;;4.08;100.00;99300.38;5056102;28;19925;-78
2021/04/08 04:15:29;;;;;;;;;;;;;;;4.19;100.00;99295.78;5055795;28;20383;-78
2021/04/08 04:17:56;;;;;;;;;;;;;;;4.13;100.00;99290.94;5056084;28;20406;-77
2021/04/08 04:20:23;;;;;;;;;;;;;;;4.12;100.00;99283.84;5055864;28;19932;-78
2021/04/08 04:22:51;;;;;;;;;;;;;;;4.03;100.00;99286.84;5055809;28;19963;-78
2021/04/08 04:25:17;;;;;;;;;;;;;;;4.00;100.00;99286.84;5056089;28;19940;-77
2021/04/08 04:27:44;;;;;;;;;;;;;;;3.83;100.00;99287.38;5055494;28;19932;-77
2021/04/08 04:30:11;;;;;;;;;;;;;;;3.84;100.00;99281.47;5055841;28;20455;-77
2021/04/08 04:32:38;;;;;;;;;;;;;;;3.70;100.00;99275.75;5055587;28;20284;-77
2021/04/08 04:35:06;;;;;;;;;;;;;;;3.75;100.00;99278.19;5055817;28;19928;-77
2021/04/08 04:37:33;;;;;;;;;;;;;;;3.74;100.00;99273.84;5054400;28;19932;-78
2021/04/08 04:40:00;;;;;;;;;;;;;;;3.79;100.00;99276.25;5055687;28;20019;-77
2021/04/08 04:42:27;;;;;;;;;;;;;;;3.82;100.00;99286.56;5055363;28;19931;-77
2021/04/08 04:44:54;;;;;;;;;;;;;;;3.84;100.00;99284.25;5055552;28;19967;-77
2021/04/08 04:47:20;;;;;;;;;;;;;;;3.84;100.00;99270.41;5055602;28;19931;-77
2021/04/08 04:49:47;;;;;;;;;;;;;;;3.78;100.00;99276.63;5055141;28;19931;-77
2021/04/08 04:52:14;;;;;;;;;;;;;;;3.71;100.00;99283.66;5055296;28;20386;-77
2021/04/08 04:54:41;;;;;;;;;;;;;;;3.82;100.00;99277.50;5055063;28;19931;-77
2021/04/08 04:57:07;;;;;;;;;;;;;;;3.80;100.00;99283.41;5055124;28;20376;-78
2021/04/08 04:59:34;;;;;;;;;;;;;;;3.81;100.00;99276.69;5055198;28;19968;-77
2021/04/08 05:02:01;;;;;;;;;;;;;;;3.84;100.00;99267.66;5055489;28;19931;-77
2021/04/08 05:04:28;;;;;;;;;;;;;;;3.94;100.00;99269.75;5054919;28;19931;-77
2021/04/08 05:06:54;;;;;;;;;;;;;;;4.02;100.00;99278.94;5054894;28;19936;-78
2021/04/08 05:09:21;;;;;;;;;;;;;;;4.06;100.00;99277.81;5054979;28;19924;-78
2021/04/08 05:11:48;;;;;;;;;;;;;;;4.13;100.00;99263.28;5053404;28;20368;-77
2021/04/08 05:14:14;;;;;;;;;;;;;;;4.14;100.00;99276.75;5055184;28;20352;-77
2021/04/08 05:16:41;;;;;;;;;;;;;;;4.15;100.00;99264.50;5055043;28;20380;-77
2021/04/08 05:19:07;;;;;;;;;;;;;;;4.16;100.00;99260.59;5054910;28;19978;-77
2021/04/08 05:21:35;;;;;;;;;;;;;;;4.21;100.00;99264.97;5054804;28;19936;-78
2021/04/08 05:24:01;;;;;;;;;;;;;;;4.25;100.00;99265.81;5054752;28;20388;-78
2021/04/08 05:26:29;;;;;;;;;;;;;;;4.25;100.00;99255.56;5036887;28;19931;-77
2021/04/08 05:28:55;;;;;;;;;;;;;;;4.30;100.00;99252.44;5054507;28;19929;-78
2021/04/08 05:31:22;;;;;;;;;;;;;;;4.30;100.00;99260.72;5054650;28;19924;-78
2021/04/08 05:33:49;;;;;;;;;;;;;;;4.37;100.00;99248.97;5054467;28;19924;-77
2021/04/08 05:36:16;;;;;;;;;;;;;;;4.38;100.00;99251.34;5036906;28;19963;-77
2021/04/08 05:38:42;;;;;;;;;;;;;;;4.40;100.00;99251.78;5054363;28;19925;-77
2021/04/08 05:41:09;;;;;;;;;;;;;;;4.40;100.00;99249.00;5054349;28;20019;-77
2021/04/08 05:43:37;;;;;;;;;;;;;;;4.43;100.00;99241.91;5053259;28;20011;-77
2021/04/08 05:46:09;;;;;;;;;;;;;;;4.38;100.00;99254.13;5052916;28;20015;-76
2021/04/08 05:48:36;;;;;;;;;;;;;;;4.45;100.00;99256.97;5054168;28;19929;-76
2021/04/08 05:51:03;;;;;;;;;;;;;;;4.48;100.00;99259.00;5054025;28;19932;-76
2021/04/08 05:53:30;;;;;;;;;;;;;;;4.48;100.00;99247.91;5053119;28;19932;-77
2021/04/08 05:55:58;;;;;;;;;;;;;;;4.45;100.00;99248.69;5050951;28;19925;-77
2021/04/08 05:58:25;;;;;;;;;;;;;;;4.41;100.00;99252.59;5046441;28;19939;-77
2021/04/08 06:00:55;;;;;;;;;;;;;;;4.50;100.00;99250.31;5047514;28;19929;-77
2021/04/08 06:03:23;;;;;;;;;;;;;;;4.52;100.00;99254.28;5053275;28;19925;-77
2021/04/08 06:05:50;;;;;;;;;;;;;;;4.54;100.00;99243.63;5046608;28;19975;-77
2021/04/08 06:08:16;;;;;;;;;;;;;;;4.59;100.00;99251.59;5049193;28;19931;-76
2021/04/08 06:10:43;;;;;;;;;;;;;;;4.65;100.00;99258.38;5053710;28;19925;-76
2021/04/08 06:13:10;;;;;;;;;;;;;;;4.62;100.00;99253.59;5050875;28;19925;-77
2021/04/08 06:15:36;;;;;;;;;;;;;;;4.66;100.00;99243.38;5052690;28;20004;-76
2021/04/08 06:18:03;;;;;;;;;;;;;;;4.67;100.00;99249.69;5053077;28;20006;-77
2021/04/08 06:20:30;;;;;;;;;;;;;;;4.74;100.00;99263.63;5051984;28;19934;-77
2021/04/08 06:23:01;;;;;;;;;;;;;;;4.73;100.00;99271.13;5048183;28;19928;-77
2021/04/08 06:25:28;;;;;;;;;;;;;;;4.72;100.00;99269.53;5050529;28;20033;-77
2021/04/08 06:27:55;;;;;;;;;;;;;;;4.72;100.00;99266.75;5052884;28;19940;-77
2021/04/08 06:30:22;;;;;;;;;;;;;;;4.78;100.00;99279.09;5047634;28;19924;-77
2021/04/08 06:32:52;;;;;;;;;;;;;;;4.81;100.00;99281.09;5052673;28;19952;-76
2021/04/08 06:35:19;;;;;;;;;;;;;;;4.87;100.00;99293.41;5051667;28;19978;-77
2021/04/08 06:37:45;;;;;;;;;;;;;;;4.99;100.00;99298.69;5050593;28;20712;-77
2021/04/08 06:40:13;;;;;;;;;;;;;;;5.02;100.00;99295.16;5050195;28;19925;-77
2021/04/08 06:42:41;;;;;;;;;;;;;;;5.04;100.00;99308.59;5051376;28;19925;-77
2021/04/08 06:45:08;;;;;;;;;;;;;;;5.12;100.00;99316.59;5052524;28;19924;-77
2021/04/08 06:47:46;;;;;;;;;;;;;;;5.21;100.00;99303.22;5052411;28;19924;-77
2021/04/08 06:50:13;;;;;;;;;;;;;;;5.30;100.00;99317.56;5050548;28;19952;-77
2021/04/08 06:52:41;;;;;;;;;;;;;;;5.37;100.00;99316.81;5052580;28;20082;-77
2021/04/08 06:55:08;;;;;;;;;;;;;;;5.39;100.00;99311.72;5047182;28;19925;-78
2021/04/08 06:57:37;;;;;;;;;;;;;;;5.48;100.00;99312.94;5050907;28;19936;-77
2021/04/08 07:00:04;;;;;;;;;;;;;;;5.51;100.00;99314.94;5051143;28;19964;-77
2021/04/08 07:02:32;;;;;;;;;;;;;;;5.52;100.00;99318.53;5051859;28;20479;-78
2021/04/08 07:04:59;;;;;;;;;;;;;;;5.57;100.00;99305.09;5051632;28;19932;-77
2021/04/08 07:07:25;;;;;;;;;;;;;;;5.67;100.00;99298.06;5052795;28;20462;-77
2021/04/08 07:09:52;;;;;;;;;;;;;;;5.76;100.00;99309.59;5049773;28;19925;-78
2021/04/08 07:12:19;;;;;;;;;;;;;;;6.04;100.00;99300.69;5051692;28;19932;-78
2021/04/08 07:18:01;;;;;;;;;;;;;;;6.43;100.00;99291.38;5049809;28;19933;-79
2021/04/08 07:20:28;;;;;;;;;;;;;;;6.44;100.00;99292.16;5052921;28;20075;-79
2021/04/08 07:23:14;;;;;;;;;;;;;;;6.38;100.00;99277.06;5053139;28;19971;-79
2021/04/08 07:25:59;;;;;;;;;;;;;;;6.97;100.00;99266.16;5052925;28;19925;-78
2021/04/08 07:28:44;;;;;;;;;;;;;;;7.07;100.00;99254.25;5055877;28;19936;-78
2021/04/08 07:31:16;;;;;;;;;;;;;;;7.39;100.00;99248.72;5056086;28;20284;-79
2021/04/08 07:33:43;;;;;;;;;;;;;;;7.71;100.00;99232.00;5056381;28;19929;-79
2021/04/08 07:36:10;;;;;;;;;;;;;;;7.61;100.00;99236.38;5054935;28;19925;-78
2021/04/08 07:38:47;;;;;;;;;;;;;;;7.42;100.00;99213.75;5056506;28;19921;-78
2021/04/08 07:41:21;;;;;;;;;;;;;;;7.38;100.00;99202.63;5056164;28;19924;-78
2021/04/08 07:43:57;;;;;;;;;;;;;;;7.29;100.00;99200.25;5056101;28;19928;-78
2021/04/08 07:46:28;;;;;;;;;;;;;;;6.97;100.00;99204.22;5055984;28;20389;-79
2021/04/08 07:48:57;;;;;;;;;;;;;;;6.75;100.00;99203.44;5056337;28;19925;-78
2021/04/08 07:51:31;;;;;;;;;;;;;;;6.71;100.00;99190.72;5056621;28;19920;-79
2021/04/08 07:54:08;;;;;;;;;;;;;;;6.68;100.00;99175.63;5055507;28;20031;-79
2021/04/08 07:56:34;;;;;;;;;;;;;;;6.68;100.00;99185.97;5055552;28;19921;-80
2021/04/08 07:59:17;;;;;;;;;;;;;;;6.76;100.00;99182.00;5051659;28;19928;-80
2021/04/08 08:01:44;;;;;;;;;;;;;;;6.74;100.00;99170.50;5052714;28;19924;-79
2021/04/08 08:04:24;;;;;;;;;;;;;;;6.76;100.00;99182.00;5056359;28;20513;-79
2021/04/08 08:06:52;;;;;;;;;;;;;;;6.64;100.00;99174.84;5055153;28;20360;-79
2021/04/08 08:09:42;;;;;;;;;;;;;;;6.58;100.00;99181.19;5055178;28;19928;-79
2021/04/08 08:12:09;;;;;;;;;;;;;;;6.47;100.00;99186.72;5054110;28;19925;-79
2021/04/08 08:14:38;;;;;;;;;;;;;;;6.43;100.00;99179.56;5040446;28;20008;-77
2021/04/08 08:17:08;;;;;;;;;;;;;;;6.47;100.00;99174.81;5047529;28;19921;-77
2021/04/08 08:19:40;;;;;;;;;;;;;;;6.55;100.00;99174.44;5052296;28;20015;-77
2021/04/08 08:22:07;;;;;;;;;;;;;;;6.62;100.00;99176.44;5050046;28;20544;-77
2021/04/08 08:24:34;;;;;;;;;;;;;;;6.63;100.00;99145.50;5050519;28;19927;-78
2021/04/08 08:27:00;;;;;;;;;;;;;;;6.83;100.00;99166.13;5050846;28;20454;-77
2021/04/08 08:29:29;;;;;;;;;;;;;;;7.17;100.00;99163.75;5031867;28;19921;-77
2021/04/08 08:31:56;;;;;;;;;;;;;;;7.43;100.00;99174.44;5044692;28;19925;-78
2021/04/08 08:34:30;;;;;;;;;;;;;;;7.47;100.00;99166.88;5048748;28;19928;-78
2021/04/08 08:36:58;;;;;;;;;;;;;;;7.29;100.00;99161.34;5051543;28;20013;-77
2021/04/08 08:39:27;;;;;;;;;;;;;;;7.08;100.00;99155.81;5050607;28;20386;-78
2021/04/08 08:41:56;;;;;;;;;;;;;;;6.93;100.00;99161.78;5048848;28;19929;-78
2021/04/08 08:44:24;;;;;;;;;;;;;;;6.92;100.00;99157.41;5047725;28;19964;-78
2021/04/08 08:47:09;;;;;;;;;;;;;;;7.05;100.00;99161.38;5051379;28;20377;-78
2021/04/08 08:49:38;;;;;;;;;;;;;;;7.35;100.00;99161.72;5051576;28;20331;-78
2021/04/08 08:52:06;;;;;;;;;;;;;;;7.41;100.00;99154.56;5051201;28;19959;-78
2021/04/08 08:54:33;;;;;;;;;;;;;;;7.32;100.00;99156.97;5048024;28;20006;-77
2021/04/08 08:57:01;;;;;;;;;;;;;;;7.26;100.00;99155.78;5051473;28;19928;-77
2021/04/08 08:59:28;;;;;;;;;;;;;;;7.38;100.00;99149.81;5047527;28;19928;-77
2021/04/08 09:02:16;;;;;;;;;;;;;;;7.44;100.00;99139.88;5049620;28;19959;-78
2021/04/08 09:05:11;;;;;;;;;;;;;;;7.44;100.00;99144.66;5049985;28;19932;-78
2021/04/08 09:07:42;;;;;;;;;;;;;;;7.52;100.00;99135.09;5041323;28;19972;-78
2021/04/08 09:10:49;;;;;;;;;;;;;;;7.52;100.00;99141.44;5020280;28;20283;-79
2021/04/08 09:13:36;;;;;;;;;;;;;;;7.47;100.00;99127.94;5043180;28;20392;-79
2021/04/08 09:16:13;;;;;;;;;;;;;;;7.40;100.00;99116.84;5050333;28;20370;-80
2021/04/08 09:18:39;;;;;;;;;;;;;;;7.31;100.00;99135.94;5051953;28;19921;-79
2021/04/08 09:21:06;;;;;;;;;;;;;;;7.33;100.00;99139.09;5050208;28;20019;-78
2021/04/08 09:23:34;;;;;;;;;;;;;;;7.35;100.00;99109.72;5050692;28;19943;-78
2021/04/08 09:26:02;;;;;;;;;;;;;;;7.26;100.00;99125.22;5047485;28;20007;-78
2021/04/08 09:28:37;;;;;;;;;;;;;;;7.33;100.00;99128.78;5046053;28;19975;-78
2021/04/08 09:31:09;;;;;;;;;;;;;;;7.32;100.00;99126.41;5050159;28;20435;-78
2021/04/08 09:33:48;;;;;;;;;;;;;;;7.41;100.00;99135.09;5035960;28;19927;-78
2021/04/08 09:36:22;;;;;;;;;;;;;;;7.47;100.00;99116.81;5050598;28;20068;-78
2021/04/08 09:38:49;;;;;;;;;;;;;;;7.49;100.00;99108.88;5058578;28;19935;-78
2021/04/08 09:41:17;;;;;;;;;;;;;;;7.59;100.00;99102.50;5051235;28;19924;-79
2021/04/08 09:43:45;;;;;;;;;;;;;;;7.59;100.00;99102.50;5054542;28;19946;-79
2021/04/08 09:46:13;;;;;;;;;;;;;;;7.70;100.00;99096.88;5052607;28;19920;-79
2021/04/08 09:48:50;;;;;;;;;;;;;;;7.88;100.00;99080.91;5057915;28;19928;-79
2021/04/08 09:51:24;;;;;;;;;;;;;;;8.11;100.00;99095.91;5053768;28;19927;-79
2021/04/08 09:53:54;;;;;;;;;;;;;;;8.24;100.00;99080.34;5049416;28;20023;-79
2021/04/08 09:56:40;;;;;;;;;;;;;;;8.36;100.00;99079.06;5052236;28;19921;-79
2021/04/08 09:59:07;;;;;;;;;;;;;;;8.22;100.00;99071.63;5047610;28;20356;-79
2021/04/08 10:01:34;;;;;;;;;;;;;;;8.28;100.00;99074.75;5054132;28;19921;-80
2021/04/08 10:04:16;;;;;;;;;;;;;;;8.43;100.00;99070.66;5051536;28;20024;-77
2021/04/08 10:06:43;;;;;;;;;;;;;;;8.45;100.00;99071.81;5054607;28;19932;-79
2021/04/08 10:09:14;;;;;;;;;;;;;;;8.54;100.00;99063.03;5049067;28;19927;-79
2021/04/08 10:11:42;;;;;;;;;;;;;;;8.56;100.00;99066.19;5043153;28;19920;-79
2021/04/08 10:14:14;;;;;;;;;;;;;;;8.47;100.00;99061.09;5050171;28;19927;-78
2021/04/08 10:16:41;;;;;;;;;;;;;;;8.49;100.00;99061.47;5048649;28;19920;-79
2021/04/08 10:19:09;;;;;;;;;;;;;;;8.62;100.00;99037.47;5050162;28;20411;-78
2021/04/08 10:21:35;;;;;;;;;;;;;;;8.93;100.00;99036.41;5049139;28;19943;-78
2021/04/08 10:24:11;;;;;;;;;;;;;;;9.24;100.00;99036.50;5048678;28;19928;-79
2021/04/08 10:26:37;;;;;;;;;;;;;;;9.53;100.00;99043.28;5048175;28;19921;-78
2021/04/08 10:29:04;;;;;;;;;;;;;;;9.90;100.00;99057.19;5048768;28;19920;-79
2021/04/08 10:31:30;;;;;;;;;;;;;;;9.90;100.00;99027.28;5049375;28;19994;-79
2021/04/08 10:34:07;;;;;;;;;;;;;;;9.45;100.00;99027.88;5048921;28;19929;-79
2021/04/08 10:36:35;;;;;;;;;;;;;;;9.48;100.00;99027.03;5057378;28;20299;-79
2021/04/08 10:39:22;;;;;;;;;;;;;;;9.67;100.00;99023.59;5056980;28;19920;-79
2021/04/08 10:41:54;;;;;;;;;;;;;;;9.97;100.00;99027.16;5049600;28;19998;-79
2021/04/08 10:44:46;;;;;;;;;;;;;;;10.34;100.00;99023.47;5050619;28;20013;-79
2021/04/08 10:47:17;;;;;;;;;;;;;;;10.16;100.00;99011.78;5046016;28;19945;-78
2021/04/08 10:49:49;;;;;;;;;;;;;;;9.66;100.00;98999.72;5038245;28;19928;-79
2021/04/08 10:52:19;;;;;;;;;;;;;;;9.46;100.00;99018.28;5047131;28;19932;-79
2021/04/08 10:54:50;;;;;;;;;;;;;;;9.82;100.00;99002.66;5045098;28;19925;-77
2021/04/08 10:57:16;;;;;;;;;;;;;;;10.03;100.00;99008.75;5045070;28;19935;-78
2021/04/08 10:59:44;;;;;;;;;;;;;;;9.98;100.00;99002.84;5048562;28;19936;-78
2021/04/08 11:02:21;;;;;;;;;;;;;;;9.85;100.00;99001.81;5049432;28;19969;-78
2021/04/08 11:04:52;;;;;;;;;;;;;;;9.65;100.00;98998.13;5033518;28;19924;-78
2021/04/08 11:07:19;;;;;;;;;;;;;;;9.45;100.00;98997.19;5044620;28;19939;-79
2021/04/08 11:09:47;;;;;;;;;;;;;;;9.34;100.00;98999.31;5037736;28;20011;-78
2021/04/08 11:12:17;;;;;;;;;;;;;;;9.33;100.00;98997.75;5049925;28;19927;-79
2021/04/08 11:14:57;;;;;;;;;;;;;;;9.43;100.00;99008.78;5053821;28;19921;-78
2021/04/08 11:17:25;;;;;;;;;;;;;;;9.40;100.00;99008.81;5051397;28;20007;-81
2021/04/08 11:19:53;;;;;;;;;;;;;;;9.37;100.00;98992.91;5050994;28;19924;-78
2021/04/08 11:22:25;;;;;;;;;;;;;;;9.60;100.00;99001.38;5038746;28;20538;-78
2021/04/08 11:24:53;;;;;;;;;;;;;;;9.99;100.00;98996.84;5048038;28;19963;-77
2021/04/08 11:27:26;;;;;;;;;;;;;;;9.97;100.00;98982.50;5050591;28;19978;-81
2021/04/08 11:29:53;;;;;;;;;;;;;;;10.13;100.00;98981.91;5045387;28;19925;-79
2021/04/08 11:32:19;;;;;;;;;;;;;;;10.52;100.00;98984.84;5044862;28;19947;-79
2021/04/08 11:34:51;;;;;;;;;;;;;;;10.57;100.00;98998.34;5048885;28;19924;-79
2021/04/08 11:37:31;;;;;;;;;;;;;;;10.57;100.00;98987.19;5042530;28;19921;-82
2021/04/08 11:39:58;;;;;;;;;;;;;;;10.44;100.00;98991.75;5049038;28;19944;-80
2021/04/08 11:42:25;;;;;;;;;;;;;;;10.71;100.00;98986.91;5051086;28;19935;-80
2021/04/08 11:44:52;;;;;;;;;;;;;;;10.71;100.00;98992.50;5052438;28;20287;-80
2021/04/08 11:47:20;;;;;;;;;;;;;;;10.67;100.00;98994.56;5049286;28;20015;-80
2021/04/08 11:49:49;;;;;;;;;;;;;;;10.61;100.00;98990.69;5052425;28;19936;-80
2021/04/08 11:52:17;;;;;;;;;;;;;;;10.80;100.00;98973.16;5051271;28;19925;-80
2021/04/08 11:54:56;;;;;;;;;;;;;;;10.79;100.00;98971.59;5052234;28;19924;-79
2021/04/08 11:57:23;;;;;;;;;;;;;;;11.27;100.00;98974.66;5033195;28;19921;-80
2021/04/08 11:59:50;;;;;;;;;;;;;;;11.38;100.00;98980.03;5039207;28;19932;-78
2021/04/08 12:02:30;;;;;;;;;;;;;;;11.21;100.00;98972.81;5050639;28;19925;-78
2021/04/08 12:04:57;;;;;;;;;;;;;;;10.67;100.00;98977.81;5048411;28;20015;-78
2021/04/08 12:07:24;;;;;;;;;;;;;;;10.62;100.00;98978.28;5041902;28;20035;-78
2021/04/08 12:09:51;;;;;;;;;;;;;;;10.69;100.00;98975.38;5048388;28;20007;-78
2021/04/08 12:12:18;;;;;;;;;;;;;;;10.66;100.00;98974.22;5061283;28;19964;-78
2021/04/08 12:15:04;;;;;;;;;;;;;;;10.86;100.00;98965.88;5065755;28;20062;-78
2021/04/08 12:17:32;;;;;;;;;;;;;;;11.32;100.00;98968.56;5057323;28;20372;-79
2021/04/08 12:20:15;;;;;;;;;;;;;;;11.23;100.00;98967.56;5055165;28;20434;-78
2021/04/08 12:22:42;;;;;;;;;;;;;;;11.12;100.00;98959.38;5041818;28;19927;-78
2021/04/08 12:25:17;;;;;;;;;;;;;;;11.03;100.00;98966.78;5067250;28;20787;-78
2021/04/08 12:27:44;;;;;;;;;;;;;;;11.30;100.00;98962.59;5058838;28;20497;-78
2021/04/08 12:30:11;;;;;;;;;;;;;;;11.35;100.00;98972.50;5055744;28;19929;-78
2021/04/08 12:32:38;;;;;;;;;;;;;;;10.78;100.00;98956.06;5053115;28;19931;-78
2021/04/08 12:35:09;;;;;;;;;;;;;;;10.72;100.00;98968.94;5067149;28;19933;-78
2021/04/08 12:37:36;;;;;;;;;;;;;;;10.43;100.00;98970.66;5063240;28;19924;-86
2021/04/08 12:40:04;;;;;;;;;;;;;;;10.38;100.00;98973.91;5057218;28;19920;-80
2021/04/08 12:42:30;;;;;;;;;;;;;;;10.27;100.00;98970.53;5052380;28;19920;-79
2021/04/08 12:44:57;;;;;;;;;;;;;;;10.28;100.00;98966.50;5051177;28;20058;-80
2021/04/08 12:47:26;;;;;;;;;;;;;;;10.62;100.00;98955.94;5051738;28;19935;-79
2021/04/08 12:49:53;;;;;;;;;;;;;;;10.94;100.00;98953.34;5051258;28;19932;-79
2021/04/08 12:52:19;;;;;;;;;;;;;;;11.01;100.00;98956.03;5055623;28;19924;-79
2021/04/08 12:54:46;;;;;;;;;;;;;;;10.62;100.00;98967.91;5057668;28;19927;-79
2021/04/08 12:57:13;;;;;;;;;;;;;;;10.80;100.00;98939.63;5034124;28;20027;-78
2021/04/08 12:59:39;;;;;;;;;;;;;;;11.14;100.00;98950.56;5055175;28;19971;-79